Time;durP1;ratioP1;P1;durP2;ratioP2;P2;SDS_P1;SDS_P2;PMS_P1;PMS_P2;Temp;Humidity;BMP_temperature;BMP_pressure;BME280_temperature;BME280_humidity;BME280_pressure;Samples;Min_cycle;Max_cycle;Signal;HPM_P1;HPM_P2
2021/12/29 00:00:25;;;;;;;17.67;8.52;;;;;;;8.17;100.00;99941.00;4993315;28;20026;-55
2021/12/29 00:02:51;;;;;;;18.63;8.45;;;;;;;8.18;100.00;99954.47;4993424;28;20031;-55
2021/12/29 00:05:16;;;;;;;19.58;9.23;;;;;;;8.10;100.00;99955.22;4993058;28;20049;-56
2021/12/29 00:07:42;;;;;;;20.00;9.10;;;;;;;8.14;100.00;99950.69;4993929;28;20038;-56
2021/12/29 00:10:08;;;;;;;20.52;10.02;;;;;;;8.15;100.00;99963.34;4993642;28;20027;-56
2021/12/29 00:12:40;;;;;;;20.02;9.18;;;;;;;8.16;100.00;99958.66;4993546;28;20028;-56
2021/12/29 00:15:06;;;;;;;21.35;10.27;;;;;;;8.12;100.00;99973.06;4992889;28;20072;-56
2021/12/29 00:17:31;;;;;;;21.15;10.70;;;;;;;8.14;100.00;99985.69;4992830;28;20059;-55
2021/12/29 00:19:57;;;;;;;20.83;9.93;;;;;;;8.10;100.00;99996.53;4993519;28;20465;-54
2021/12/29 00:22:22;;;;;;;20.80;10.40;;;;;;;8.17;100.00;100007.13;4993071;28;20038;-55
2021/12/29 00:24:47;;;;;;;23.73;10.77;;;;;;;8.07;100.00;100010.91;4993070;28;20026;-54
2021/12/29 00:27:13;;;;;;;20.27;10.32;;;;;;;8.10;100.00;100024.09;4993649;28;20034;-55
2021/12/29 00:29:38;;;;;;;22.92;10.50;;;;;;;8.10;100.00;100026.84;4993361;28;20034;-55
2021/12/29 00:32:04;;;;;;;23.50;10.85;;;;;;;8.07;100.00;100025.53;4992885;28;20554;-54
2021/12/29 00:34:29;;;;;;;23.45;10.90;;;;;;;8.07;100.00;100028.28;4993061;28;20033;-54
2021/12/29 00:36:54;;;;;;;21.55;10.98;;;;;;;8.15;100.00;100026.72;4993247;28;20030;-55
2021/12/29 00:39:19;;;;;;;23.80;10.75;;;;;;;8.17;100.00;100029.19;4993099;28;20088;-54
2021/12/29 00:41:45;;;;;;;23.23;11.13;;;;;;;8.14;100.00;100044.38;4992815;28;20039;-53
2021/12/29 00:44:10;;;;;;;24.63;11.00;;;;;;;8.04;100.00;100053.69;4993104;28;20109;-56
2021/12/29 00:46:37;;;;;;;23.80;10.50;;;;;;;8.04;100.00;100052.84;4993091;28;20486;-54
2021/12/29 00:49:03;;;;;;;21.67;9.32;;;;;;;8.11;100.00;100065.09;4993076;28;20027;-55
2021/12/29 00:51:28;;;;;;;21.55;9.95;;;;;;;8.10;100.00;100066.22;4992523;28;20097;-55
2021/12/29 00:53:53;;;;;;;21.75;10.05;;;;;;;8.07;100.00;100069.59;4993348;28;20040;-56
2021/12/29 00:56:18;;;;;;;20.77;9.70;;;;;;;8.15;100.00;100068.03;4992660;28;20023;-53
2021/12/29 00:58:44;;;;;;;21.40;10.00;;;;;;;8.11;100.00;100072.56;4993364;28;20398;-56
2021/12/29 01:01:09;;;;;;;20.83;10.80;;;;;;;8.17;100.00;100074.06;4993200;28;20034;-54
2021/12/29 01:03:36;;;;;;;22.27;10.50;;;;;;;8.08;100.00;100084.19;4992605;28;20108;-54
2021/12/29 01:06:02;;;;;;;22.45;10.50;;;;;;;8.12;100.00;100093.47;4993222;28;20065;-54
2021/12/29 01:08:27;;;;;;;19.50;10.30;;;;;;;8.15;100.00;100101.09;4993982;28;20086;-55
2021/12/29 01:10:52;;;;;;;20.45;10.20;;;;;;;8.09;100.00;100094.06;4997190;28;20026;-56
2021/12/29 01:13:24;;;;;;;22.58;10.45;;;;;;;8.09;100.00;100102.34;4995369;28;20018;-55
2021/12/29 01:16:16;;;;;;;20.52;10.05;;;;;;;8.09;100.00;100121.63;4996379;28;20482;-55
2021/12/29 01:18:43;;;;;;;20.58;10.88;;;;;;;8.06;100.00;100116.72;4996060;28;20070;-56
2021/12/29 01:21:09;;;;;;;21.52;10.65;;;;;;;8.09;100.00;100116.91;4996843;28;20063;-55
2021/12/29 01:23:34;;;;;;;22.73;10.35;;;;;;;8.15;100.00;100127.84;4996530;28;20034;-57
2021/12/29 01:26:00;;;;;;;20.30;10.38;;;;;;;8.16;100.00;100137.75;4996744;28;20030;-56
2021/12/29 01:28:25;;;;;;;21.92;11.18;;;;;;;8.04;100.00;100147.34;4996416;28;20069;-56
2021/12/29 01:30:51;;;;;;;20.73;10.65;;;;;;;8.08;100.00;100145.59;4996649;28;20031;-56
2021/12/29 01:33:16;;;;;;;20.83;10.48;;;;;;;8.08;100.00;100148.34;4996662;28;20064;-56
2021/12/29 01:35:42;;;;;;;21.38;11.20;;;;;;;8.10;100.00;100162.63;4996536;28;20073;-58
2021/12/29 01:38:08;;;;;;;21.70;10.48;;;;;;;8.07;100.00;100168.78;4995819;28;20117;-56
2021/12/29 01:40:35;;;;;;;22.02;10.68;;;;;;;8.10;100.00;100183.88;4996309;28;20038;-57
2021/12/29 01:43:02;;;;;;;20.23;10.70;;;;;;;8.11;100.00;100180.78;4995935;28;20026;-57
2021/12/29 01:45:27;;;;;;;21.73;10.73;;;;;;;8.14;100.00;100187.63;4995806;28;20035;-57
2021/12/29 01:47:52;;;;;;;21.15;10.60;;;;;;;8.09;100.00;100176.72;4996020;28;20030;-57
2021/12/29 01:50:19;;;;;;;21.92;11.20;;;;;;;8.09;100.00;100185.00;4996209;28;20530;-56
2021/12/29 01:52:54;;;;;;;23.77;11.65;;;;;;;8.05;100.00;100195.81;4995122;28;20050;-56
2021/12/29 01:55:19;;;;;;;21.67;11.32;;;;;;;8.06;100.00;100200.19;4995591;28;20033;-56
2021/12/29 01:57:45;;;;;;;21.17;10.63;;;;;;;8.01;100.00;100197.53;4995555;28;20026;-56
2021/12/29 02:00:18;;;;;;;20.73;10.52;;;;;;;8.05;100.00;100208.75;4996031;28;20033;-56
2021/12/29 02:02:44;;;;;;;24.60;11.48;;;;;;;8.04;100.00;100212.63;4996291;28;20497;-56
2021/12/29 02:05:10;;;;;;;21.35;10.35;;;;;;;8.07;99.75;100199.06;4996397;28;20023;-56
2021/12/29 02:07:36;;;;;;;21.98;10.85;;;;;;;7.99;100.00;100197.00;4995159;28;20101;-55
2021/12/29 02:10:03;;;;;;;21.90;10.88;;;;;;;8.05;100.00;100208.75;4995486;28;20367;-57
2021/12/29 02:12:28;;;;;;;20.92;10.15;;;;;;;8.08;100.00;100208.94;4995234;28;20393;-56
2021/12/29 02:14:53;;;;;;;22.67;11.45;;;;;;;8.07;100.00;100225.78;4995583;28;20027;-56
2021/12/29 02:17:18;;;;;;;22.50;10.73;;;;;;;8.07;100.00;100231.31;4995345;28;20117;-56
2021/12/29 02:19:48;;;;;;;20.88;11.15;;;;;;;8.10;99.90;100242.53;4994545;28;20162;-56
2021/12/29 02:22:28;;;;;;;21.42;10.77;;;;;;;8.05;100.00;100230.78;4995118;28;20050;-56
2021/12/29 02:25:06;;;;;;;21.27;10.98;;;;;;;8.07;100.00;100245.91;4996083;28;20110;-56
2021/12/29 02:27:34;;;;;;;21.10;11.23;;;;;;;8.04;100.00;100238.25;4995190;28;20034;-57
2021/12/29 02:30:00;;;;;;;21.85;11.35;;;;;;;8.07;100.00;100248.66;4994933;28;20061;-55
2021/12/29 02:32:26;;;;;;;21.85;10.73;;;;;;;8.05;100.00;100239.88;4994956;28;20027;-56
2021/12/29 02:34:51;;;;;;;20.50;11.18;;;;;;;8.07;100.00;100242.31;4995496;28;20038;-55
2021/12/29 02:37:19;;;;;;;21.65;11.55;;;;;;;8.05;100.00;100250.91;4994585;28;20034;-55
2021/12/29 02:39:45;;;;;;;21.95;11.93;;;;;;;8.07;100.00;100254.16;4995280;28;20026;-56
2021/12/29 02:42:11;;;;;;;23.92;11.35;;;;;;;8.07;100.00;100247.84;4994992;28;20069;-56
2021/12/29 02:44:40;;;;;;;23.40;11.68;;;;;;;8.14;100.00;100258.47;4994259;28;20090;-56
2021/12/29 02:47:06;;;;;;;22.63;12.43;;;;;;;8.05;100.00;100269.34;4994770;28;20037;-56
2021/12/29 02:49:32;;;;;;;20.77;11.50;;;;;;;8.09;100.00;100262.94;4995374;28;20405;-56
2021/12/29 02:51:57;;;;;;;23.58;12.32;;;;;;;8.05;100.00;100261.91;4994634;28;20224;-57
2021/12/29 02:54:23;;;;;;;24.13;12.38;;;;;;;8.00;100.00;100250.97;4994525;28;20030;-56
2021/12/29 02:56:54;;;;;;;21.88;11.90;;;;;;;8.04;100.00;100262.19;4995079;28;20029;-58
2021/12/29 02:59:20;;;;;;;24.20;12.75;;;;;;;7.96;100.00;100260.97;4995005;28;20157;-58
2021/12/29 03:01:45;;;;;;;24.65;12.38;;;;;;;7.99;100.00;100252.09;4995027;28;20073;-57
2021/12/29 03:04:11;;;;;;;22.02;11.88;;;;;;;7.97;100.00;100260.66;4994822;28;20046;-56
2021/12/29 03:06:37;;;;;;;20.73;11.07;;;;;;;7.95;100.00;100267.59;4994519;28;20384;-57
2021/12/29 03:09:05;;;;;;;22.10;11.32;;;;;;;7.92;100.00;100279.22;4995343;28;20034;-57
2021/12/29 03:11:30;;;;;;;21.58;11.88;;;;;;;7.97;100.00;100290.16;4993924;28;20026;-57
2021/12/29 03:13:56;;;;;;;20.88;10.98;;;;;;;7.92;100.00;100299.34;4993437;28;20081;-55
2021/12/29 03:16:21;;;;;;;21.25;11.50;;;;;;;7.91;100.00;100291.34;4993823;28;20033;-57
2021/12/29 03:18:46;;;;;;;21.15;11.35;;;;;;;7.97;100.00;100281.91;4993581;28;20096;-56
2021/12/29 03:21:12;;;;;;;21.55;11.63;;;;;;;7.96;100.00;100305.84;4994581;28;20038;-56
2021/12/29 03:23:38;;;;;;;22.60;12.07;;;;;;;7.94;100.00;100304.53;4993715;28;20030;-56
2021/12/29 03:26:06;;;;;;;21.90;11.30;;;;;;;7.95;100.00;100314.44;4993965;28;20101;-55
2021/12/29 03:28:32;;;;;;;23.88;13.27;;;;;;;7.90;100.00;100315.34;4994043;28;20030;-56
2021/12/29 03:30:57;;;;;;;24.80;13.25;;;;;;;7.95;100.00;100320.75;4993624;28;20040;-55
2021/12/29 03:33:26;;;;;;;22.85;12.73;;;;;;;7.97;100.00;100324.03;4994246;28;20019;-54
2021/12/29 03:35:55;;;;;;;27.67;14.48;;;;;;;7.90;100.00;100314.50;4993814;28;20023;-55
2021/12/29 03:38:23;;;;;;;25.10;14.15;;;;;;;7.86;100.00;100325.31;4994010;28;20077;-55
2021/12/29 03:40:50;;;;;;;24.25;14.10;;;;;;;7.94;100.00;100338.38;4993576;28;20117;-55
2021/12/29 03:43:16;;;;;;;26.98;15.55;;;;;;;7.89;100.00;100343.16;4993962;28;20037;-57
2021/12/29 03:45:45;;;;;;;27.75;15.48;;;;;;;7.86;100.00;100341.03;4994062;28;20474;-55
2021/12/29 03:48:12;;;;;;;25.50;14.90;;;;;;;7.90;100.00;100342.03;4993130;28;20027;-55
2021/12/29 03:50:38;;;;;;;27.30;15.02;;;;;;;7.85;100.00;100345.69;4993700;28;20041;-55
2021/12/29 03:53:05;;;;;;;26.05;15.07;;;;;;;7.84;100.00;100351.50;4992908;28;20133;-55
2021/12/29 03:55:30;;;;;;;26.75;15.32;;;;;;;7.83;100.00;100367.25;4993797;28;20117;-57
2021/12/29 03:57:56;;;;;;;26.63;15.82;;;;;;;7.85;100.00;100366.94;4993401;28;20114;-54
2021/12/29 04:00:22;;;;;;;26.42;14.77;;;;;;;7.84;100.00;100368.03;4993359;28;20042;-56
2021/12/29 04:02:48;;;;;;;24.80;14.60;;;;;;;7.84;100.00;100368.03;4993370;28;20552;-55
2021/12/29 04:05:16;;;;;;;27.27;15.45;;;;;;;7.80;100.00;100374.13;4993738;28;20026;-55
2021/12/29 04:07:41;;;;;;;25.25;14.23;;;;;;;7.80;100.00;100373.34;4993872;28;20393;-56
2021/12/29 04:10:09;;;;;;;24.58;13.95;;;;;;;7.75;100.00;100354.94;4993764;28;20026;-56
2021/12/29 04:12:35;;;;;;;26.20;13.93;;;;;;;7.82;100.00;100376.59;4993413;28;20034;-56
2021/12/29 04:15:00;;;;;;;26.08;14.57;;;;;;;7.80;100.00;100382.41;4992153;28;20029;-56
2021/12/29 04:17:36;;;;;;;26.85;14.57;;;;;;;7.80;100.00;100384.34;4992729;28;20026;-55
2021/12/29 04:22:47;;;;;;;25.13;13.27;;;;;;;7.85;100.00;100387.00;4994003;28;20501;-57
2021/12/29 04:25:12;;;;;;;26.50;14.68;;;;;;;7.85;100.00;100380.69;4993383;28;20034;-57
2021/12/29 04:27:37;;;;;;;26.75;14.57;;;;;;;7.78;100.00;100383.81;4993340;28;20049;-55
2021/12/29 04:30:03;;;;;;;26.88;14.95;;;;;;;7.77;100.00;100391.28;4993510;28;20031;-55
2021/12/29 04:32:28;;;;;;;27.88;14.45;;;;;;;7.80;100.00;100398.13;4992384;28;20065;-56
2021/12/29 04:34:54;;;;;;;29.05;15.57;;;;;;;7.77;100.00;100393.19;4993064;28;20026;-55
2021/12/29 04:37:19;;;;;;;28.52;15.63;;;;;;;7.76;100.00;100400.66;4992535;28;20034;-56
2021/12/29 04:39:44;;;;;;;28.40;15.30;;;;;;;7.78;100.00;100403.09;4993447;28;20022;-56
2021/12/29 04:42:09;;;;;;;27.92;15.95;;;;;;;7.77;100.00;100406.97;4993487;28;20034;-55
2021/12/29 04:44:35;;;;;;;27.17;13.93;;;;;;;7.84;100.00;100412.09;4996937;28;20425;-56
2021/12/29 04:47:01;;;;;;;25.65;14.35;;;;;;;7.79;100.00;100419.31;4997647;28;20038;-56
2021/12/29 04:49:29;;;;;;;27.40;13.88;;;;;;;7.76;100.00;100425.44;4996923;28;20109;-54
2021/12/29 04:52:02;;;;;;;26.00;14.23;;;;;;;7.76;100.00;100422.69;4996973;28;20096;-55
2021/12/29 04:54:28;;;;;;;26.33;13.80;;;;;;;7.75;100.00;100434.81;4996808;28;20457;-54
2021/12/29 04:56:55;;;;;;;26.60;15.32;;;;;;;7.70;100.00;100439.56;4996791;28;20054;-55
2021/12/29 04:59:21;;;;;;;29.15;14.57;;;;;;;7.70;100.00;100437.63;4997540;28;20057;-57
2021/12/29 05:01:47;;;;;;;26.20;14.13;;;;;;;7.74;100.00;100438.66;4996981;28;20042;-57
2021/12/29 05:04:19;;;;;;;28.10;14.45;;;;;;;7.73;100.00;100445.28;4997286;28;20073;-57
2021/12/29 05:09:29;;;;;;;26.60;14.32;;;;;;;7.73;100.00;100447.25;4997061;28;20181;-55
2021/12/29 05:11:54;;;;;;;28.38;15.25;;;;;;;7.74;100.00;100455.19;4996921;28;20466;-55
2021/12/29 05:14:19;;;;;;;29.45;14.57;;;;;;;7.74;100.00;100448.88;4996663;28;20034;-56
2021/12/29 05:16:44;;;;;;;28.40;14.68;;;;;;;7.74;100.00;100448.88;4996629;28;20089;-56
2021/12/29 05:19:10;;;;;;;29.52;15.57;;;;;;;7.75;100.00;100447.75;4996842;28;20023;-55
2021/12/29 05:21:35;;;;;;;28.17;15.32;;;;;;;7.73;100.00;100450.81;4996806;28;20029;-55
2021/12/29 05:24:00;;;;;;;28.17;15.15;;;;;;;7.76;100.00;100441.94;4996118;28;20030;-56
2021/12/29 05:26:26;;;;;;;29.10;15.10;;;;;;;7.73;100.00;100450.81;4996512;28;20516;-59
2021/12/29 05:28:51;;;;;;;28.27;15.02;;;;;;;7.74;100.00;100449.69;4996343;28;20473;-55
2021/12/29 05:31:16;;;;;;;28.60;14.70;;;;;;;7.79;100.00;100455.09;4996419;28;20066;-60
2021/12/29 05:33:41;;;;;;;29.73;14.55;;;;;;;7.76;100.00;100446.63;4995954;28;20466;-58
2021/12/29 05:36:07;;;;;;;26.30;15.15;;;;;;;7.78;100.00;100452.66;4996357;28;20038;-57
2021/12/29 05:38:32;;;;;;;25.73;14.43;;;;;;;7.80;100.00;100464.22;4995948;28;20048;-57
2021/12/29 05:40:57;;;;;;;25.98;13.38;;;;;;;7.79;100.00;100459.81;4996235;28;20026;-59
2021/12/29 05:43:23;;;;;;;28.25;14.68;;;;;;;7.76;100.00;100463.97;4995823;28;20027;-58
2021/12/29 05:45:49;;;;;;;28.70;14.80;;;;;;;7.79;100.00;100468.06;4996177;28;20101;-57
2021/12/29 05:48:15;;;;;;;26.30;13.73;;;;;;;7.78;100.00;100466.44;4994423;28;20018;-59
2021/12/29 05:50:40;;;;;;;28.95;15.38;;;;;;;7.74;100.00;100459.91;4994594;28;20053;-59
2021/12/29 05:53:06;;;;;;;26.55;15.45;;;;;;;7.74;100.00;100470.91;4995710;28;20072;-60
2021/12/29 05:55:31;;;;;;;28.48;14.38;;;;;;;7.77;100.00;100470.28;4994307;28;20386;-60
2021/12/29 05:57:57;;;;;;;27.17;14.73;;;;;;;7.77;100.00;100467.53;4996010;28;20026;-58
2021/12/29 06:00:24;;;;;;;27.70;14.95;;;;;;;7.73;100.00;100461.00;4995911;28;20037;-56
2021/12/29 06:02:50;;;;;;;27.77;14.68;;;;;;;7.73;100.00;100456.31;4995308;28;20031;-58
2021/12/29 06:05:16;;;;;;;27.63;14.93;;;;;;;7.74;100.00;100466.22;4995280;28;20045;-54
2021/12/29 06:07:42;;;;;;;27.58;15.48;;;;;;;7.76;100.00;100468.66;4995375;28;20034;-55
2021/12/29 06:10:08;;;;;;;26.70;14.30;;;;;;;7.71;100.00;100468.75;4995202;28;20030;-60
2021/12/29 06:12:34;;;;;;;27.55;15.88;;;;;;;7.74;100.00;100476.41;4995188;28;20037;-56
2021/12/29 06:14:59;;;;;;;27.33;14.82;;;;;;;7.73;100.00;100485.78;4995542;28;20030;-57
2021/12/29 06:17:25;;;;;;;29.10;15.13;;;;;;;7.72;100.00;100473.94;4995358;28;20109;-57
2021/12/29 06:19:50;;;;;;;29.67;16.02;;;;;;;7.72;100.00;100490.47;4995588;28;20034;-57
2021/12/29 06:22:15;;;;;;;27.55;15.50;;;;;;;7.73;100.00;100489.34;4995608;28;20188;-57
2021/12/29 06:24:42;;;;;;;26.83;14.20;;;;;;;7.77;100.00;100498.66;4995652;28;20018;-55
2021/12/29 06:27:09;;;;;;;26.70;15.23;;;;;;;7.76;100.00;100507.22;4995368;28;20065;-56
2021/12/29 06:29:35;;;;;;;26.58;15.13;;;;;;;7.72;100.00;100523.50;4995430;28;20030;-56
2021/12/29 06:32:00;;;;;;;28.00;14.82;;;;;;;7.72;100.00;100520.75;4995600;28;20057;-57
2021/12/29 06:34:26;;;;;;;26.98;13.68;;;;;;;7.73;100.00;100527.91;4995049;28;20494;-57
2021/12/29 06:36:51;;;;;;;27.20;15.48;;;;;;;7.71;100.00;100523.81;4995395;28;20034;-56
2021/12/29 06:39:17;;;;;;;26.27;15.23;;;;;;;7.74;100.00;100524.03;4994968;28;20489;-56
2021/12/29 06:41:42;;;;;;;27.70;14.95;;;;;;;7.71;100.00;100519.09;4994690;28;20080;-55
2021/12/29 06:44:07;;;;;;;27.52;14.90;;;;;;;7.71;100.00;100518.31;4994447;28;20105;-55
2021/12/29 06:46:34;;;;;;;29.95;14.95;;;;;;;7.70;100.00;100519.41;4994878;28;20397;-55
2021/12/29 06:49:00;;;;;;;26.90;14.80;;;;;;;7.70;100.00;100522.97;4994879;28;20041;-56
2021/12/29 06:51:25;;;;;;;26.58;14.73;;;;;;;7.70;100.00;100530.44;4994529;28;20046;-57
2021/12/29 06:53:51;;;;;;;27.73;14.65;;;;;;;7.70;100.00;100527.66;4994734;28;20031;-56
2021/12/29 06:56:16;;;;;;;27.38;14.00;;;;;;;7.69;100.00;100529.63;4994967;28;20481;-55
2021/12/29 06:58:41;;;;;;;28.58;13.73;;;;;;;7.70;100.00;100531.22;4993331;28;20105;-55
2021/12/29 07:01:06;;;;;;;27.05;13.95;;;;;;;7.69;100.00;100540.63;4994672;28;20086;-55
2021/12/29 07:03:32;;;;;;;27.30;14.23;;;;;;;7.67;100.00;100542.84;4994738;28;20030;-55
2021/12/29 07:05:57;;;;;;;26.88;14.52;;;;;;;7.69;100.00;100542.56;4994379;28;20141;-55
2021/12/29 07:08:23;;;;;;;26.30;14.75;;;;;;;7.69;100.00;100539.78;4994920;28;20031;-57
2021/12/29 07:10:49;;;;;;;28.67;14.32;;;;;;;7.67;100.00;100547.53;4994535;28;20029;-56
2021/12/29 07:13:14;;;;;;;27.95;14.18;;;;;;;7.66;100.00;100552.22;4993078;28;20451;-55
2021/12/29 07:15:39;;;;;;;28.25;14.05;;;;;;;7.64;100.00;100557.19;4994846;28;20057;-56
2021/12/29 07:18:05;;;;;;;26.63;14.27;;;;;;;7.65;100.00;100562.41;4994765;28;20062;-56
2021/12/29 07:20:32;;;;;;;29.90;14.02;;;;;;;7.63;100.00;100564.66;4994620;28;20030;-57
2021/12/29 07:22:57;;;;;;;28.67;14.23;;;;;;;7.60;100.00;100570.72;4994632;28;20040;-55
2021/12/29 07:25:24;;;;;;;27.38;13.68;;;;;;;7.61;100.00;100572.38;4993493;28;20026;-56
2021/12/29 07:27:50;;;;;;;27.73;14.20;;;;;;;7.60;100.00;100580.94;4994644;28;20032;-56
2021/12/29 07:30:16;;;;;;;25.00;13.30;;;;;;;7.60;100.00;100575.44;4994277;28;20036;-54
2021/12/29 07:32:41;;;;;;;24.42;14.02;;;;;;;7.57;100.00;100576.81;4994385;28;20441;-55
2021/12/29 07:35:07;;;;;;;26.13;13.82;;;;;;;7.57;100.00;100585.06;4993797;28;20093;-55
2021/12/29 07:37:32;;;;;;;26.00;13.68;;;;;;;7.58;100.00;100588.66;4993745;28;20472;-55
2021/12/29 07:39:57;;;;;;;26.42;13.60;;;;;;;7.59;100.00;100593.88;4994070;28;20028;-56
2021/12/29 07:42:23;;;;;;;27.35;13.32;;;;;;;7.58;100.00;100591.41;4994331;28;20041;-56
2021/12/29 07:44:50;;;;;;;25.25;13.40;;;;;;;7.54;100.00;100596.69;4994201;28;20026;-56
2021/12/29 07:47:15;;;;;;;25.88;13.25;;;;;;;7.59;100.00;100590.31;4994311;28;20121;-57
2021/12/29 07:49:41;;;;;;;24.17;12.38;;;;;;;7.59;100.00;100595.81;4994182;28;20466;-57
2021/12/29 07:52:06;;;;;;;24.02;12.95;;;;;;;7.57;100.00;100600.78;4992391;28;20105;-56
2021/12/29 07:54:32;;;;;;;24.15;12.32;;;;;;;7.59;100.00;100593.06;4994099;28;20132;-57
2021/12/29 07:56:57;;;;;;;25.33;12.07;;;;;;;7.57;100.00;100587.03;4994137;28;20030;-58
2021/12/29 07:59:22;;;;;;;25.17;13.27;;;;;;;7.58;100.00;100596.91;4992632;28;20469;-58
2021/12/29 08:01:48;;;;;;;26.45;12.52;;;;;;;7.56;100.00;100597.19;4993656;28;20077;-57
2021/12/29 08:04:15;;;;;;;23.30;12.13;;;;;;;7.50;100.00;100581.84;4993779;28;20077;-57
2021/12/29 08:06:40;;;;;;;24.75;12.48;;;;;;;7.54;100.00;100588.44;4994019;28;20077;-59
2021/12/29 08:09:09;;;;;;;24.23;13.10;;;;;;;7.54;100.00;100595.84;4994075;28;20030;-59
2021/12/29 08:11:35;;;;;;;24.55;12.15;;;;;;;7.54;100.00;100590.34;4993736;28;20031;-58
2021/12/29 08:14:01;;;;;;;24.35;13.80;;;;;;;7.55;100.00;100598.34;4993706;28;20026;-58
2021/12/29 08:16:26;;;;;;;28.48;15.00;;;;;;;7.54;100.00;100595.84;4993777;28;20034;-58
2021/12/29 08:18:51;;;;;;;32.28;17.52;;;;;;;7.54;100.00;100601.34;4993000;28;20026;-56
2021/12/29 08:21:17;;;;;;;29.63;16.08;;;;;;;7.54;100.00;100601.34;4990855;28;20058;-56
2021/12/29 08:23:42;;;;;;;26.85;13.45;;;;;;;7.54;100.00;100595.84;4991032;28;20034;-56
2021/12/29 08:26:07;;;;;;;23.05;10.90;;;;;;;7.53;100.00;100597.78;4991686;28;20041;-54
2021/12/29 08:28:33;;;;;;;26.45;12.95;;;;;;;7.54;100.00;100598.59;4991488;28;20038;-56
2021/12/29 08:30:58;;;;;;;23.92;11.73;;;;;;;7.53;100.00;100596.97;4991878;28;20026;-56
2021/12/29 08:33:24;;;;;;;23.88;12.82;;;;;;;7.51;100.00;100591.75;4990086;28;20034;-56
2021/12/29 08:35:49;;;;;;;21.77;11.68;;;;;;;7.52;100.00;100601.66;4991375;28;20046;-57
2021/12/29 08:38:15;;;;;;;23.80;10.73;;;;;;;7.54;100.00;100604.09;4992227;28;20034;-55
2021/12/29 08:40:40;;;;;;;24.27;12.02;;;;;;;7.53;100.00;100602.47;4992283;28;20030;-58
2021/12/29 08:43:05;;;;;;;23.52;11.30;;;;;;;7.54;100.00;100604.09;4991383;28;20135;-56
2021/12/29 08:45:32;;;;;;;24.13;11.52;;;;;;;7.55;100.00;100598.34;4991374;28;20402;-56
2021/12/29 08:47:58;;;;;;;22.50;11.25;;;;;;;7.58;100.00;100607.94;4991751;28;20046;-57
2021/12/29 08:50:25;;;;;;;22.02;11.13;;;;;;;7.61;100.00;100610.91;4991550;28;20038;-57
2021/12/29 08:52:51;;;;;;;23.23;11.57;;;;;;;7.62;100.00;100612.56;4991112;28;20089;-57
2021/12/29 08:55:17;;;;;;;24.25;11.90;;;;;;;7.62;100.00;100615.31;4991403;28;20030;-57
2021/12/29 08:57:43;;;;;;;26.50;11.50;;;;;;;7.63;100.00;100611.47;4990947;28;20088;-57
2021/12/29 09:00:12;;;;;;;22.48;11.82;;;;;;;7.61;100.00;100602.66;4991263;28;20022;-56
2021/12/29 09:02:37;;;;;;;22.45;12.05;;;;;;;7.61;100.00;100608.16;4991115;28;20022;-56
2021/12/29 09:05:03;;;;;;;23.35;11.73;;;;;;;7.61;100.00;100612.84;4991211;28;20099;-56
2021/12/29 09:07:29;;;;;;;25.20;11.27;;;;;;;7.62;100.00;100612.56;4991551;28;20077;-56
2021/12/29 09:09:54;;;;;;;23.23;12.30;;;;;;;7.66;100.00;100618.31;4991121;28;20494;-56
2021/12/29 09:12:19;;;;;;;23.00;11.70;;;;;;;7.66;100.00;100623.81;4990980;28;20030;-56
2021/12/29 09:14:45;;;;;;;22.05;11.55;;;;;;;7.67;100.00;100614.44;4991548;28;20045;-56
2021/12/29 09:17:11;;;;;;;24.42;11.73;;;;;;;7.68;100.00;100610.59;4991085;28;20033;-57
2021/12/29 09:19:40;;;;;;;24.75;12.43;;;;;;;7.70;100.00;100611.09;4991122;28;20031;-56
2021/12/29 09:22:05;;;;;;;24.30;11.57;;;;;;;7.70;100.00;100607.53;4991368;28;20054;-57
2021/12/29 09:24:30;;;;;;;24.98;11.95;;;;;;;7.72;100.00;100608.06;4990920;28;20038;-54
2021/12/29 09:26:56;;;;;;;22.65;11.73;;;;;;;7.74;100.00;100601.13;4989577;28;20027;-55
2021/12/29 09:29:21;;;;;;;25.55;11.77;;;;;;;7.78;100.00;100601.38;4990921;28;20026;-55
2021/12/29 09:31:46;;;;;;;27.00;12.57;;;;;;;7.78;100.00;100595.84;4992974;28;20022;-56
2021/12/29 09:34:12;;;;;;;22.58;11.43;;;;;;;7.80;100.00;100601.91;4992915;28;20045;-56
2021/12/29 09:36:37;;;;;;;24.67;12.50;;;;;;;7.80;100.00;100591.69;4996730;28;20022;-56
2021/12/29 09:39:03;;;;;;;24.00;12.48;;;;;;;7.80;99.72;100596.41;4996527;28;20022;-58
2021/12/29 09:41:31;;;;;;;23.65;11.65;;;;;;;7.84;99.64;100599.38;4995581;28;20062;-57
2021/12/29 09:43:56;;;;;;;25.42;12.73;;;;;;;7.85;99.59;100606.53;4996204;28;20030;-57
2021/12/29 09:46:21;;;;;;;23.52;12.82;;;;;;;7.86;99.51;100599.91;4996617;28;20484;-57
2021/12/29 09:48:48;;;;;;;23.33;12.20;;;;;;;7.85;98.68;100601.03;4996457;28;20109;-57
2021/12/29 09:51:14;;;;;;;23.88;12.15;;;;;;;7.86;98.92;100600.72;4996881;28;20062;-57
2021/12/29 09:53:42;;;;;;;23.67;12.18;;;;;;;7.88;98.38;100595.75;4996476;28;20030;-57
2021/12/29 09:56:09;;;;;;;23.42;12.10;;;;;;;7.91;97.94;100589.66;4995945;28;20385;-57
2021/12/29 09:58:36;;;;;;;23.38;12.48;;;;;;;7.93;97.73;100578.34;4995603;28;20029;-57
2021/12/29 10:01:05;;;;;;;25.02;12.60;;;;;;;8.00;97.58;100587.03;4996141;28;20031;-58
2021/12/29 10:03:31;;;;;;;23.25;12.13;;;;;;;8.08;97.56;100586.38;4996167;28;20037;-57
2021/12/29 10:05:59;;;;;;;22.10;11.45;;;;;;;8.12;97.13;100592.16;4996280;28;20037;-58
2021/12/29 10:08:31;;;;;;;24.30;11.68;;;;;;;8.10;97.04;100575.91;4995970;28;20117;-58
2021/12/29 10:11:01;;;;;;;21.63;10.77;;;;;;;8.18;96.45;100584.59;4995039;28;20027;-58
2021/12/29 10:13:31;;;;;;;22.35;10.65;;;;;;;8.27;96.55;100591.94;4995868;28;20030;-58
2021/12/29 10:16:04;;;;;;;21.85;10.48;;;;;;;8.35;96.03;100590.47;4996119;28;20077;-58
2021/12/29 10:18:31;;;;;;;22.95;10.88;;;;;;;8.38;95.68;100605.56;4995729;28;20050;-57
2021/12/29 10:21:00;;;;;;;23.95;11.80;;;;;;;8.39;95.70;100596.19;4995830;28;20101;-58
2021/12/29 10:23:30;;;;;;;23.38;11.63;;;;;;;8.39;95.76;100588.72;4995946;28;20474;-58
2021/12/29 10:26:03;;;;;;;21.60;10.55;;;;;;;8.45;95.33;100591.44;4995788;28;20037;-56
2021/12/29 10:28:31;;;;;;;22.80;10.73;;;;;;;8.40;95.39;100586.81;4995778;28;20038;-57
2021/12/29 10:31:04;;;;;;;22.77;10.85;;;;;;;8.38;95.91;100570.53;4995716;28;20034;-57
2021/12/29 10:33:56;;;;;;;23.23;10.83;;;;;;;8.39;95.56;100566.69;4995626;28;20500;-57
2021/12/29 10:36:25;;;;;;;22.20;10.68;;;;;;;8.35;95.91;100545.53;4990274;28;20479;-57
2021/12/29 10:39:11;;;;;;;22.05;10.82;;;;;;;8.42;96.25;100554.22;4995275;28;20085;-57
2021/12/29 10:42:02;;;;;;;23.42;10.93;;;;;;;8.42;96.03;100557.81;4994745;28;20104;-58
2021/12/29 10:44:49;;;;;;;20.77;10.13;;;;;;;8.40;96.47;100549.03;4992567;28;20052;-58
2021/12/29 10:47:27;;;;;;;22.48;10.10;;;;;;;8.44;96.07;100549.25;4995267;28;20054;-58
2021/12/29 10:50:03;;;;;;;22.52;9.75;;;;;;;8.49;95.59;100568.50;4995595;28;20359;-58
2021/12/29 10:52:36;;;;;;;19.73;9.43;;;;;;;8.48;95.47;100577.91;4995087;28;20058;-57
2021/12/29 10:55:31;;;;;;;20.17;9.60;;;;;;;8.44;96.04;100549.25;4995133;28;20492;-57
2021/12/29 10:58:15;;;;;;;;;;;;;;;8.51;96.47;100546.94;4987563;28;20039;-57
2021/12/29 11:01:02;;;;;;;22.85;9.23;;;;;;;8.44;95.45;100557.50;4995452;28;19921;-57
2021/12/29 11:03:30;;;;;;;21.67;9.00;;;;;;;8.39;95.54;100560.34;4994661;28;20042;-57
2021/12/29 11:05:59;;;;;;;18.80;8.75;;;;;;;8.40;95.91;100571.06;4994876;28;20026;-57
2021/12/29 11:08:44;;;;;;;20.13;8.52;;;;;;;8.39;95.85;100577.69;4994935;28;20597;-57
2021/12/29 11:11:09;;;;;;;20.27;8.70;;;;;;;8.43;96.02;100580.69;4995196;28;20034;-57
2021/12/29 11:13:35;;;;;;;20.60;8.32;;;;;;;8.45;96.09;100586.72;4995106;28;20026;-58
2021/12/29 11:16:03;;;;;;;21.60;9.13;;;;;;;8.47;95.98;100590.03;4994806;28;20030;-57